Blythe, CA

12:58 PM PDT on August 20, 2014 (GMT -0700)
North Valley | Change Station
CLOSE
Current Station
Personal Weather Station
Location: Blythe, CA
Elevation: 265 ft
Nearby Weather Stations

Elev 265 ft 33.66 °N, 114.61 °W | Updated 59 seconds ago

Clear
Clear
95.0 °F
Feels Like 96 °F
N
9.2
Wind Variable Wind from South
Gusts 12.1 mph

Today
High -- | Low -- °F
--% Chance of Precip.
Yesterday
High -- | Low -- °F
Precip. -- in
6:04 AM 7:18 PM
Waning Crescent, 19% visible
Pressure 29.81 in
Visibility 10.0 miles
Clouds Clear
Heat Index 96 °F
Dew Point 62 °F
Humidity 33%
Rainfall 0.00 in
Snow Depth Not available.
UV 11 out of 12
Pollen 6.60 out of 12
Ozone Good
Flu Activity Not available.
METAR KBLH 201952Z AUTO 17006KT 10SM CLR 37/12 A2983 RMK AO2 SLP095 T03670122

More Conditions Fewer Conditions

Pressure 29.81 in
Visibility 10.0 miles
Clouds Clear
Heat Index 96 °F
Dew Point 62 °F
Humidity 33%
Rainfall 0.00 in
Snow Depth Not available.
UV 11 out of 12
Pollen 6.60 out of 12
Ozone Good
Flu Activity Not available.
METAR KBLH 201952Z AUTO 17006KT 10SM CLR 37/12 A2983 RMK AO2 SLP095 T03670122

More Conditions Fewer Conditions

10-Day Weather Forecast

Almanac

Astronomy

Aug. 20, 2014 Rise Set
Actual Time 6:04 AM PDT 7:18 PM PDT
Civil Twilight 5:38 AM PDT 7:44 PM PDT
Nautical Twilight 5:07 AM PDT 8:15 PM PDT
Astronomical Twilight 4:35 AM PDT 8:47 PM PDT
Moon 1:52 AM PDT 4:01 PM PDT
Length of Visible Light 14h 06m
Length of Day
13h 14m
Tomorrow will be 1m 52s shorter.
Waning Crescent, 19% of the Moon is Illuminated
Today
Waning Crescent
Aug 25
New
Sep 2
First Quarter
Sep 8
Full
Sep 15
Last Quarter

Today's Extremes

State Highs State Lows

Community

WunderPhotos

Upload Photos

1,745,727 photos uploaded!

WunderBlogs® & News

By Dr. Jeff Masters
Director of Meteorology, Weather Underground
By Kari Strenfel
Meteorologist, Weather Underground
By Christopher C. Burt
Weather Historian, Weather Underground
August 20, 2014
August 20, 2014
August 20, 2014

Nearby

Air Quality

  Air Quality AQ Index Pollutant
Yesterday Moderate
OZONE
Yesterday Good
PM10
Current Good
OZONE
Thursday Moderate
OZONE
Thursday Good
PM10
Thursday Good
CO
Thursday Good
NO2

Snow Depth

Station Depth Elevation
Leavitt Meadows 0 in 7200 ft
Summit Meadow 0 in 9122 ft
Fallen Leaf 0 in 6300 ft
Adin Mountain 0 in 6200 ft

Earthquake Activity

City Distance Mag. Time & Date
Yucca Valley, California 116 miles 3.8 8:57 PM PDT
2014-08-14
Alberto Oviedo Mota, Mexico 103 miles 2.8 3:03 PM PDT
2014-08-14
Salton City, California 82 miles 2.6 6:58 AM PDT
2014-08-14
Minimum magnitude displayed is 2.5.

Coastal Water Temperatures

Place Temperature
No Stations Reporting

Nearby Weather Stations